Capreol, Canada
Current Conditions -  °F | °C
As of 7:00 PM on Sunday 23 Nov 2014 (Local Time) from CYSB Reporting Station
Light Rain Light Rain  
Wind Chill: 32°   Ceiling: 100
Heat Index: 39°   Visibility: 0.12mi
Dew Point: 39°   Wind: 12mph
Humidity: 100%   Direction: 160°SSE
Pressure: 29.67"   Gusts: NA
Location:  46.7°N, 80.92°W
Report Text: CYSB 240000Z 16010KT 1/8SM R22/1100FT/N -RA FG VV001 04/04 A2967 RMK FG8 SLP061
Loading
Personal Weather Stations






























Interactive Weather Map New forecast layout! Learn more

10-Day Weather Forecast

Advertisements
Track Severe Weather on mobile